sensor_id;sensor_type;location;lat;lon;timestamp;temperature;humidity
21085;DHT22;72320;50.082;20.000;2023-11-21T00:01:27;19.70;59.10
21085;DHT22;72320;50.082;20.000;2023-11-21T00:03:01;19.70;59.50
21085;DHT22;72320;50.082;20.000;2023-11-21T00:04:35;19.70;59.50
21085;DHT22;72320;50.082;20.000;2023-11-21T00:06:08;19.60;59.50
21085;DHT22;72320;50.082;20.000;2023-11-21T00:07:42;19.40;59.90
21085;DHT22;72320;50.082;20.000;2023-11-21T00:09:16;19.40;60.20
21085;DHT22;72320;50.082;20.000;2023-11-21T00:10:50;19.40;60.40
21085;DHT22;72320;50.082;20.000;2023-11-21T00:12:23;19.50;60.20
21085;DHT22;72320;50.082;20.000;2023-11-21T00:13:56;19.50;60.20
21085;DHT22;72320;50.082;20.000;2023-11-21T00:15:29;19.60;60.00
21085;DHT22;72320;50.082;20.000;2023-11-21T00:17:03;19.50;60.10
21085;DHT22;72320;50.082;20.000;2023-11-21T00:18:37;19.60;60.00
21085;DHT22;72320;50.082;20.000;2023-11-21T00:20:10;19.70;59.90
21085;DHT22;72320;50.082;20.000;2023-11-21T00:21:44;19.50;60.00
21085;DHT22;72320;50.082;20.000;2023-11-21T00:23:17;19.50;60.30
21085;DHT22;72320;50.082;20.000;2023-11-21T00:24:50;19.40;60.70
21085;DHT22;72320;50.082;20.000;2023-11-21T00:26:23;19.20;61.60
21085;DHT22;72320;50.082;20.000;2023-11-21T00:27:56;19.20;60.80
21085;DHT22;72320;50.082;20.000;2023-11-21T00:29:30;19.30;60.90
21085;DHT22;72320;50.082;20.000;2023-11-21T00:31:03;19.30;60.80
21085;DHT22;72320;50.082;20.000;2023-11-21T00:32:37;19.50;60.20
21085;DHT22;72320;50.082;20.000;2023-11-21T00:34:12;19.50;60.40
21085;DHT22;72320;50.082;20.000;2023-11-21T00:35:46;19.60;59.80
21085;DHT22;72320;50.082;20.000;2023-11-21T00:37:19;19.70;59.90
21085;DHT22;72320;50.082;20.000;2023-11-21T00:38:52;19.60;59.80
21085;DHT22;72320;50.082;20.000;2023-11-21T00:40:25;19.70;59.80
21085;DHT22;72320;50.082;20.000;2023-11-21T00:41:58;19.70;59.70
21085;DHT22;72320;50.082;20.000;2023-11-21T00:43:32;19.70;59.30
21085;DHT22;72320;50.082;20.000;2023-11-21T00:45:06;19.80;59.60
21085;DHT22;72320;50.082;20.000;2023-11-21T01:16:43;20.20;58.60
21085;DHT22;72320;50.082;20.000;2023-11-21T01:18:17;20.10;58.60
21085;DHT22;72320;50.082;20.000;2023-11-21T01:19:50;20.10;58.50
21085;DHT22;72320;50.082;20.000;2023-11-21T01:21:23;20.10;58.50
21085;DHT22;72320;50.082;20.000;2023-11-21T01:22:57;20.20;58.20
21085;DHT22;72320;50.082;20.000;2023-11-21T01:24:30;20.20;58.40
21085;DHT22;72320;50.082;20.000;2023-11-21T01:26:03;20.20;58.20
21085;DHT22;72320;50.082;20.000;2023-11-21T01:27:37;20.20;58.30
21085;DHT22;72320;50.082;20.000;2023-11-21T01:29:10;20.10;58.30
21085;DHT22;72320;50.082;20.000;2023-11-21T01:30:48;20.10;58.40
21085;DHT22;72320;50.082;20.000;2023-11-21T01:32:22;20.20;58.00
21085;DHT22;72320;50.082;20.000;2023-11-21T01:33:56;20.20;58.20
21085;DHT22;72320;50.082;20.000;2023-11-21T01:35:32;20.10;58.50
21085;DHT22;72320;50.082;20.000;2023-11-21T01:37:05;20.00;58.40
21085;DHT22;72320;50.082;20.000;2023-11-21T01:38:39;20.00;58.60
21085;DHT22;72320;50.082;20.000;2023-11-21T01:40:12;20.00;58.60
21085;DHT22;72320;50.082;20.000;2023-11-21T01:41:46;20.00;58.70
21085;DHT22;72320;50.082;20.000;2023-11-21T01:43:19;19.90;58.60
21085;DHT22;72320;50.082;20.000;2023-11-21T01:44:52;19.80;58.80
21085;DHT22;72320;50.082;20.000;2023-11-21T01:46:26;19.80;58.70
21085;DHT22;72320;50.082;20.000;2023-11-21T01:48:00;19.80;58.70
21085;DHT22;72320;50.082;20.000;2023-11-21T01:49:35;19.80;58.80
21085;DHT22;72320;50.082;20.000;2023-11-21T01:51:10;19.80;58.80
21085;DHT22;72320;50.082;20.000;2023-11-21T01:52:46;19.70;59.00
21085;DHT22;72320;50.082;20.000;2023-11-21T01:54:21;19.70;59.10
21085;DHT22;72320;50.082;20.000;2023-11-21T01:55:55;19.60;59.10
21085;DHT22;72320;50.082;20.000;2023-11-21T01:57:30;19.60;59.00
21085;DHT22;72320;50.082;20.000;2023-11-21T01:59:09;19.60;59.20
21085;DHT22;72320;50.082;20.000;2023-11-21T02:00:47;19.60;59.00
21085;DHT22;72320;50.082;20.000;2023-11-21T02:03:02;19.60;59.00
21085;DHT22;72320;50.082;20.000;2023-11-21T02:05:13;19.70;58.70
21085;DHT22;72320;50.082;20.000;2023-11-21T02:07:49;19.70;58.80
21085;DHT22;72320;50.082;20.000;2023-11-21T02:09:47;19.70;59.00
21085;DHT22;72320;50.082;20.000;2023-11-21T02:11:57;19.70;58.90
21085;DHT22;72320;50.082;20.000;2023-11-21T02:13:55;19.70;59.00
21085;DHT22;72320;50.082;20.000;2023-11-21T02:16:27;19.70;58.80
21085;DHT22;72320;50.082;20.000;2023-11-21T02:18:42;19.90;58.40
21085;DHT22;72320;50.082;20.000;2023-11-21T02:20:41;20.00;58.20
21085;DHT22;72320;50.082;20.000;2023-11-21T02:22:56;20.00;58.20
21085;DHT22;72320;50.082;20.000;2023-11-21T02:25:10;20.10;58.20
21085;DHT22;72320;50.082;20.000;2023-11-21T02:27:58;20.10;58.10
21085;DHT22;72320;50.082;20.000;2023-11-21T02:29:56;20.00;58.10
21085;DHT22;72320;50.082;20.000;2023-11-21T02:32:01;19.90;57.70
21085;DHT22;72320;50.082;20.000;2023-11-21T02:34:25;19.90;58.20
21085;DHT22;72320;50.082;20.000;2023-11-21T02:36:27;19.70;58.30
21085;DHT22;72320;50.082;20.000;2023-11-21T02:38:33;19.70;58.30
21085;DHT22;72320;50.082;20.000;2023-11-21T02:40:32;19.70;58.30
21085;DHT22;72320;50.082;20.000;2023-11-21T02:42:45;19.60;58.30
21085;DHT22;72320;50.082;20.000;2023-11-21T02:44:58;19.70;58.40
21085;DHT22;72320;50.082;20.000;2023-11-21T02:47:25;19.80;58.00
21085;DHT22;72320;50.082;20.000;2023-11-21T02:49:17;19.90;57.60
21085;DHT22;72320;50.082;20.000;2023-11-21T02:51:08;19.80;57.90
21085;DHT22;72320;50.082;20.000;2023-11-21T02:53:18;19.80;58.60
21085;DHT22;72320;50.082;20.000;2023-11-21T02:55:21;19.50;58.30
21085;DHT22;72320;50.082;20.000;2023-11-21T02:57:35;19.30;58.80
21085;DHT22;72320;50.082;20.000;2023-11-21T02:59:42;19.30;58.80
21085;DHT22;72320;50.082;20.000;2023-11-21T03:01:50;19.30;58.80
21085;DHT22;72320;50.082;20.000;2023-11-21T03:04:54;19.40;58.70
21085;DHT22;72320;50.082;20.000;2023-11-21T03:06:56;19.40;58.60
21085;DHT22;72320;50.082;20.000;2023-11-21T03:09:35;19.40;58.70
21085;DHT22;72320;50.082;20.000;2023-11-21T03:11:40;19.30;58.90
21085;DHT22;72320;50.082;20.000;2023-11-21T03:13:53;19.20;58.80
21085;DHT22;72320;50.082;20.000;2023-11-21T03:15:56;19.20;58.80
21085;DHT22;72320;50.082;20.000;2023-11-21T03:18:11;19.10;59.00
21085;DHT22;72320;50.082;20.000;2023-11-21T03:20:21;19.20;58.80
21085;DHT22;72320;50.082;20.000;2023-11-21T03:21:54;19.20;58.30
21085;DHT22;72320;50.082;20.000;2023-11-21T03:23:27;19.30;58.60
21085;DHT22;72320;50.082;20.000;2023-11-21T03:25:01;19.20;58.60
21085;DHT22;72320;50.082;20.000;2023-11-21T03:26:34;19.20;58.40
21085;DHT22;72320;50.082;20.000;2023-11-21T03:28:07;19.30;58.50
21085;DHT22;72320;50.082;20.000;2023-11-21T03:29:40;19.10;58.60
21085;DHT22;72320;50.082;20.000;2023-11-21T03:31:16;19.00;58.70
21085;DHT22;72320;50.082;20.000;2023-11-21T03:32:50;19.10;58.70
21085;DHT22;72320;50.082;20.000;2023-11-21T03:34:27;19.10;58.60
21085;DHT22;72320;50.082;20.000;2023-11-21T03:36:01;19.10;58.60
21085;DHT22;72320;50.082;20.000;2023-11-21T03:37:34;19.20;58.70
21085;DHT22;72320;50.082;20.000;2023-11-21T03:39:09;19.30;59.10
21085;DHT22;72320;50.082;20.000;2023-11-21T03:40:43;19.50;57.60
21085;DHT22;72320;50.082;20.000;2023-11-21T03:42:16;19.50;58.10
21085;DHT22;72320;50.082;20.000;2023-11-21T03:43:49;19.60;57.70
21085;DHT22;72320;50.082;20.000;2023-11-21T03:45:26;19.60;57.80
21085;DHT22;72320;50.082;20.000;2023-11-21T03:46:59;19.50;57.90
21085;DHT22;72320;50.082;20.000;2023-11-21T03:48:32;19.40;58.10
21085;DHT22;72320;50.082;20.000;2023-11-21T03:50:06;19.50;58.00
21085;DHT22;72320;50.082;20.000;2023-11-21T03:51:39;19.60;57.80
21085;DHT22;72320;50.082;20.000;2023-11-21T03:53:12;19.60;57.70
21085;DHT22;72320;50.082;20.000;2023-11-21T03:54:45;19.60;58.20
21085;DHT22;72320;50.082;20.000;2023-11-21T03:56:19;19.50;57.40
21085;DHT22;72320;50.082;20.000;2023-11-21T03:57:52;19.50;57.70
21085;DHT22;72320;50.082;20.000;2023-11-21T03:59:25;19.40;58.00
21085;DHT22;72320;50.082;20.000;2023-11-21T04:00:58;19.30;58.10
21085;DHT22;72320;50.082;20.000;2023-11-21T04:02:32;19.20;58.30
21085;DHT22;72320;50.082;20.000;2023-11-21T04:04:05;19.20;58.20
21085;DHT22;72320;50.082;20.000;2023-11-21T04:05:38;19.30;57.80
21085;DHT22;72320;50.082;20.000;2023-11-21T04:07:11;19.30;57.90
21085;DHT22;72320;50.082;20.000;2023-11-21T04:08:45;19.20;58.00
21085;DHT22;72320;50.082;20.000;2023-11-21T04:10:18;19.20;57.90
21085;DHT22;72320;50.082;20.000;2023-11-21T04:11:52;19.10;58.20
21085;DHT22;72320;50.082;20.000;2023-11-21T04:13:26;19.00;58.30
21085;DHT22;72320;50.082;20.000;2023-11-21T04:14:59;19.00;58.20
21085;DHT22;72320;50.082;20.000;2023-11-21T04:16:32;19.00;58.30
21085;DHT22;72320;50.082;20.000;2023-11-21T04:18:05;18.90;59.00
21085;DHT22;72320;50.082;20.000;2023-11-21T04:19:38;19.00;58.10
21085;DHT22;72320;50.082;20.000;2023-11-21T04:21:11;19.00;58.20
21085;DHT22;72320;50.082;20.000;2023-11-21T04:22:45;19.00;58.10
21085;DHT22;72320;50.082;20.000;2023-11-21T04:24:21;19.00;58.20
21085;DHT22;72320;50.082;20.000;2023-11-21T04:25:55;18.90;58.20
21085;DHT22;72320;50.082;20.000;2023-11-21T04:27:28;19.00;58.20
21085;DHT22;72320;50.082;20.000;2023-11-21T04:29:01;18.90;58.10
21085;DHT22;72320;50.082;20.000;2023-11-21T04:30:34;18.90;58.20
21085;DHT22;72320;50.082;20.000;2023-11-21T04:32:07;18.90;58.20
21085;DHT22;72320;50.082;20.000;2023-11-21T04:33:41;18.90;58.10
21085;DHT22;72320;50.082;20.000;2023-11-21T04:35:17;18.90;58.30
21085;DHT22;72320;50.082;20.000;2023-11-21T04:36:50;18.90;58.00
21085;DHT22;72320;50.082;20.000;2023-11-21T04:38:24;18.90;58.00
21085;DHT22;72320;50.082;20.000;2023-11-21T04:39:57;19.00;58.00
21085;DHT22;72320;50.082;20.000;2023-11-21T04:41:33;19.00;58.00
21085;DHT22;72320;50.082;20.000;2023-11-21T04:43:06;19.00;57.80
21085;DHT22;72320;50.082;20.000;2023-11-21T04:44:40;19.10;57.70
21085;DHT22;72320;50.082;20.000;2023-11-21T04:46:15;19.10;57.70
21085;DHT22;72320;50.082;20.000;2023-11-21T04:47:49;19.10;57.70
21085;DHT22;72320;50.082;20.000;2023-11-21T04:49:22;19.10;57.60
21085;DHT22;72320;50.082;20.000;2023-11-21T04:50:56;19.20;57.60
21085;DHT22;72320;50.082;20.000;2023-11-21T04:52:29;19.10;57.60
21085;DHT22;72320;50.082;20.000;2023-11-21T04:54:02;19.10;57.70
21085;DHT22;72320;50.082;20.000;2023-11-21T04:55:35;19.20;57.40
21085;DHT22;72320;50.082;20.000;2023-11-21T04:57:09;19.30;57.90
21085;DHT22;72320;50.082;20.000;2023-11-21T04:58:42;19.30;57.20
21085;DHT22;72320;50.082;20.000;2023-11-21T05:00:16;19.30;57.20
21085;DHT22;72320;50.082;20.000;2023-11-21T05:01:50;19.30;56.90
21085;DHT22;72320;50.082;20.000;2023-11-21T05:03:23;19.30;57.10
21085;DHT22;72320;50.082;20.000;2023-11-21T05:04:57;19.20;56.90
21085;DHT22;72320;50.082;20.000;2023-11-21T05:06:30;19.20;57.10
21085;DHT22;72320;50.082;20.000;2023-11-21T05:08:04;19.30;57.20
21085;DHT22;72320;50.082;20.000;2023-11-21T05:09:41;19.30;57.10
21085;DHT22;72320;50.082;20.000;2023-11-21T05:11:25;19.20;57.20
21085;DHT22;72320;50.082;20.000;2023-11-21T05:12:59;19.20;57.10
21085;DHT22;72320;50.082;20.000;2023-11-21T05:14:35;19.30;56.90
21085;DHT22;72320;50.082;20.000;2023-11-21T05:16:09;19.30;57.00
21085;DHT22;72320;50.082;20.000;2023-11-21T05:17:42;19.30;56.90
21085;DHT22;72320;50.082;20.000;2023-11-21T05:19:16;19.20;57.00
21085;DHT22;72320;50.082;20.000;2023-11-21T05:20:53;19.10;57.10
21085;DHT22;72320;50.082;20.000;2023-11-21T05:22:26;19.20;57.10
21085;DHT22;72320;50.082;20.000;2023-11-21T05:24:00;19.20;57.10
21085;DHT22;72320;50.082;20.000;2023-11-21T05:25:34;19.30;57.10
21085;DHT22;72320;50.082;20.000;2023-11-21T05:27:14;19.40;56.90
21085;DHT22;72320;50.082;20.000;2023-11-21T05:28:47;19.50;56.90
21085;DHT22;72320;50.082;20.000;2023-11-21T05:30:21;19.50;56.50
21085;DHT22;72320;50.082;20.000;2023-11-21T05:31:55;19.60;56.40
21085;DHT22;72320;50.082;20.000;2023-11-21T05:33:29;19.60;56.30
21085;DHT22;72320;50.082;20.000;2023-11-21T05:35:02;19.50;56.40
21085;DHT22;72320;50.082;20.000;2023-11-21T05:36:36;19.50;56.10
21085;DHT22;72320;50.082;20.000;2023-11-21T05:38:09;19.50;56.50
21085;DHT22;72320;50.082;20.000;2023-11-21T05:39:42;19.50;56.50
21085;DHT22;72320;50.082;20.000;2023-11-21T05:41:15;19.50;56.50
21085;DHT22;72320;50.082;20.000;2023-11-21T05:42:48;19.60;56.20
21085;DHT22;72320;50.082;20.000;2023-11-21T05:44:21;19.60;56.40
21085;DHT22;72320;50.082;20.000;2023-11-21T05:45:55;19.50;56.50
21085;DHT22;72320;50.082;20.000;2023-11-21T05:47:28;19.50;56.20
21085;DHT22;72320;50.082;20.000;2023-11-21T05:49:01;19.50;56.30
21085;DHT22;72320;50.082;20.000;2023-11-21T05:50:34;19.50;56.50
21085;DHT22;72320;50.082;20.000;2023-11-21T05:52:07;19.50;56.50
21085;DHT22;72320;50.082;20.000;2023-11-21T05:53:40;19.50;56.50
21085;DHT22;72320;50.082;20.000;2023-11-21T05:55:14;19.50;56.50
21085;DHT22;72320;50.082;20.000;2023-11-21T05:56:47;19.40;56.50
21085;DHT22;72320;50.082;20.000;2023-11-21T05:58:21;19.40;56.70
21085;DHT22;72320;50.082;20.000;2023-11-21T05:59:54;19.40;56.60
21085;DHT22;72320;50.082;20.000;2023-11-21T06:01:27;19.40;56.70
21085;DHT22;72320;50.082;20.000;2023-11-21T06:03:01;19.50;56.80
21085;DHT22;72320;50.082;20.000;2023-11-21T06:04:35;19.40;56.70
21085;DHT22;72320;50.082;20.000;2023-11-21T06:06:08;19.40;56.90
21085;DHT22;72320;50.082;20.000;2023-11-21T06:07:41;19.40;56.80
21085;DHT22;72320;50.082;20.000;2023-11-21T06:09:15;19.40;56.80
21085;DHT22;72320;50.082;20.000;2023-11-21T06:10:48;19.40;56.90
21085;DHT22;72320;50.082;20.000;2023-11-21T06:12:21;19.40;56.70
21085;DHT22;72320;50.082;20.000;2023-11-21T06:13:54;19.60;56.50
21085;DHT22;72320;50.082;20.000;2023-11-21T06:15:27;19.70;56.50
21085;DHT22;72320;50.082;20.000;2023-11-21T06:17:01;19.50;56.50
21085;DHT22;72320;50.082;20.000;2023-11-21T06:18:34;19.50;56.50
21085;DHT22;72320;50.082;20.000;2023-11-21T06:20:10;19.60;56.60
21085;DHT22;72320;50.082;20.000;2023-11-21T06:21:48;19.60;56.70
21085;DHT22;72320;50.082;20.000;2023-11-21T06:23:21;19.60;56.50
21085;DHT22;72320;50.082;20.000;2023-11-21T06:24:54;19.70;56.50
21085;DHT22;72320;50.082;20.000;2023-11-21T06:26:28;19.60;56.60
21085;DHT22;72320;50.082;20.000;2023-11-21T06:28:01;19.50;56.70
21085;DHT22;72320;50.082;20.000;2023-11-21T06:29:34;19.60;56.70
21085;DHT22;72320;50.082;20.000;2023-11-21T06:31:07;19.70;56.60
21085;DHT22;72320;50.082;20.000;2023-11-21T06:32:40;19.70;56.40
21085;DHT22;72320;50.082;20.000;2023-11-21T06:34:15;19.80;56.30
21085;DHT22;72320;50.082;20.000;2023-11-21T06:35:49;19.80;56.30
21085;DHT22;72320;50.082;20.000;2023-11-21T06:37:22;19.90;56.20
21085;DHT22;72320;50.082;20.000;2023-11-21T06:38:57;19.90;56.30
21085;DHT22;72320;50.082;20.000;2023-11-21T06:40:30;19.90;56.20
21085;DHT22;72320;50.082;20.000;2023-11-21T06:42:03;19.80;56.30
21085;DHT22;72320;50.082;20.000;2023-11-21T06:43:37;19.90;56.40
21085;DHT22;72320;50.082;20.000;2023-11-21T06:45:10;19.90;56.90
21085;DHT22;72320;50.082;20.000;2023-11-21T06:46:44;19.80;56.50
21085;DHT22;72320;50.082;20.000;2023-11-21T06:48:17;19.80;56.70
21085;DHT22;72320;50.082;20.000;2023-11-21T06:49:52;19.90;56.50
21085;DHT22;72320;50.082;20.000;2023-11-21T06:51:25;19.90;57.30
21085;DHT22;72320;50.082;20.000;2023-11-21T06:52:58;19.80;56.70
21085;DHT22;72320;50.082;20.000;2023-11-21T06:54:32;19.90;56.50
21085;DHT22;72320;50.082;20.000;2023-11-21T06:56:14;19.90;56.50
21085;DHT22;72320;50.082;20.000;2023-11-21T06:57:48;19.90;56.60
21085;DHT22;72320;50.082;20.000;2023-11-21T06:59:22;19.90;56.60
21085;DHT22;72320;50.082;20.000;2023-11-21T07:00:55;19.90;56.60
21085;DHT22;72320;50.082;20.000;2023-11-21T07:02:28;19.90;56.60
21085;DHT22;72320;50.082;20.000;2023-11-21T07:04:01;19.90;56.60
21085;DHT22;72320;50.082;20.000;2023-11-21T07:05:40;19.90;56.80
21085;DHT22;72320;50.082;20.000;2023-11-21T07:07:16;19.90;56.70
21085;DHT22;72320;50.082;20.000;2023-11-21T07:08:50;19.90;56.60
21085;DHT22;72320;50.082;20.000;2023-11-21T07:10:23;19.90;56.80
21085;DHT22;72320;50.082;20.000;2023-11-21T07:11:57;19.90;56.80
21085;DHT22;72320;50.082;20.000;2023-11-21T07:13:31;19.80;56.90
21085;DHT22;72320;50.082;20.000;2023-11-21T07:15:05;19.70;57.00
21085;DHT22;72320;50.082;20.000;2023-11-21T07:16:38;19.70;57.00
21085;DHT22;72320;50.082;20.000;2023-11-21T07:18:12;19.70;57.00
21085;DHT22;72320;50.082;20.000;2023-11-21T07:19:45;19.80;57.00
21085;DHT22;72320;50.082;20.000;2023-11-21T07:21:19;19.80;56.90
21085;DHT22;72320;50.082;20.000;2023-11-21T07:22:53;19.80;57.10
21085;DHT22;72320;50.082;20.000;2023-11-21T07:24:26;19.70;57.20
21085;DHT22;72320;50.082;20.000;2023-11-21T07:26:00;19.70;57.30
21085;DHT22;72320;50.082;20.000;2023-11-21T07:27:33;19.60;57.50
21085;DHT22;72320;50.082;20.000;2023-11-21T07:29:08;19.50;57.60
21085;DHT22;72320;50.082;20.000;2023-11-21T07:30:42;19.50;57.50
21085;DHT22;72320;50.082;20.000;2023-11-21T07:32:15;19.60;57.50
21085;DHT22;72320;50.082;20.000;2023-11-21T07:33:48;19.60;57.30
21085;DHT22;72320;50.082;20.000;2023-11-21T07:35:22;19.70;57.20
21085;DHT22;72320;50.082;20.000;2023-11-21T07:36:55;19.70;57.40
21085;DHT22;72320;50.082;20.000;2023-11-21T07:38:28;19.60;57.50
21085;DHT22;72320;50.082;20.000;2023-11-21T07:40:01;19.60;57.60
21085;DHT22;72320;50.082;20.000;2023-11-21T07:41:34;19.60;58.10
21085;DHT22;72320;50.082;20.000;2023-11-21T07:43:07;19.60;57.70
21085;DHT22;72320;50.082;20.000;2023-11-21T07:44:41;19.60;57.60
21085;DHT22;72320;50.082;20.000;2023-11-21T11:53:59;20.70;53.30
21085;DHT22;72320;50.082;20.000;2023-11-21T11:55:32;20.80;53.50
21085;DHT22;72320;50.082;20.000;2023-11-21T11:57:06;20.90;53.60
21085;DHT22;72320;50.082;20.000;2023-11-21T11:58:41;20.90;53.20
21085;DHT22;72320;50.082;20.000;2023-11-21T12:00:18;20.80;53.50
21085;DHT22;72320;50.082;20.000;2023-11-21T12:01:51;20.80;53.40
21085;DHT22;72320;50.082;20.000;2023-11-21T12:03:24;20.80;53.40
21085;DHT22;72320;50.082;20.000;2023-11-21T12:04:57;20.90;53.30
21085;DHT22;72320;50.082;20.000;2023-11-21T12:06:35;20.90;53.40
21085;DHT22;72320;50.082;20.000;2023-11-21T12:08:08;21.00;52.50
21085;DHT22;72320;50.082;20.000;2023-11-21T12:09:41;21.20;52.30
21085;DHT22;72320;50.082;20.000;2023-11-21T12:11:17;21.30;52.40
21085;DHT22;72320;50.082;20.000;2023-11-21T12:13:01;21.30;53.20
21085;DHT22;72320;50.082;20.000;2023-11-21T12:14:37;21.30;52.70
21085;DHT22;72320;50.082;20.000;2023-11-21T12:16:10;21.30;52.50
21085;DHT22;72320;50.082;20.000;2023-11-21T12:17:44;21.50;51.50
21085;DHT22;72320;50.082;20.000;2023-11-21T12:19:18;21.60;52.20
21085;DHT22;72320;50.082;20.000;2023-11-21T12:20:52;21.70;52.10
21085;DHT22;72320;50.082;20.000;2023-11-21T12:22:26;21.70;52.30
21085;DHT22;72320;50.082;20.000;2023-11-21T12:23:59;21.70;51.90
21085;DHT22;72320;50.082;20.000;2023-11-21T12:25:32;21.90;51.20
21085;DHT22;72320;50.082;20.000;2023-11-21T12:27:05;21.90;52.00
21085;DHT22;72320;50.082;20.000;2023-11-21T12:28:39;21.90;51.80
21085;DHT22;72320;50.082;20.000;2023-11-21T12:30:13;21.90;51.60
21085;DHT22;72320;50.082;20.000;2023-11-21T12:31:48;22.00;50.70
21085;DHT22;72320;50.082;20.000;2023-11-21T12:33:22;22.00;51.10
21085;DHT22;72320;50.082;20.000;2023-11-21T12:34:55;22.10;51.30
21085;DHT22;72320;50.082;20.000;2023-11-21T12:36:29;22.20;50.90
21085;DHT22;72320;50.082;20.000;2023-11-21T12:38:05;22.20;50.20
21085;DHT22;72320;50.082;20.000;2023-11-21T12:39:38;22.30;49.70
21085;DHT22;72320;50.082;20.000;2023-11-21T12:41:14;22.20;51.10
21085;DHT22;72320;50.082;20.000;2023-11-21T12:42:52;22.20;50.70
21085;DHT22;72320;50.082;20.000;2023-11-21T12:44:27;22.10;51.10
21085;DHT22;72320;50.082;20.000;2023-11-21T12:46:07;22.00;51.20
21085;DHT22;72320;50.082;20.000;2023-11-21T12:47:43;22.10;50.20
21085;DHT22;72320;50.082;20.000;2023-11-21T12:49:17;22.00;51.40
21085;DHT22;72320;50.082;20.000;2023-11-21T12:50:51;21.80;51.30
21085;DHT22;72320;50.082;20.000;2023-11-21T12:52:24;21.60;51.00
21085;DHT22;72320;50.082;20.000;2023-11-21T12:53:58;21.50;51.30
21085;DHT22;72320;50.082;20.000;2023-11-21T12:55:32;21.50;50.90
21085;DHT22;72320;50.082;20.000;2023-11-21T12:57:06;21.60;50.50
21085;DHT22;72320;50.082;20.000;2023-11-21T12:58:46;21.60;50.70
21085;DHT22;72320;50.082;20.000;2023-11-21T13:00:19;21.60;50.80
21085;DHT22;72320;50.082;20.000;2023-11-21T13:01:54;21.60;50.50
21085;DHT22;72320;50.082;20.000;2023-11-21T13:03:27;21.60;49.50
21085;DHT22;72320;50.082;20.000;2023-11-21T13:05:01;21.50;50.70
21085;DHT22;72320;50.082;20.000;2023-11-21T13:06:34;21.40;50.40
21085;DHT22;72320;50.082;20.000;2023-11-21T13:08:09;21.30;50.70
21085;DHT22;72320;50.082;20.000;2023-11-21T13:09:42;21.30;50.50
21085;DHT22;72320;50.082;20.000;2023-11-21T13:11:17;21.30;50.40
21085;DHT22;72320;50.082;20.000;2023-11-21T13:12:51;21.20;50.90
21085;DHT22;72320;50.082;20.000;2023-11-21T13:14:29;21.10;51.10
21085;DHT22;72320;50.082;20.000;2023-11-21T13:16:03;21.10;50.90
21085;DHT22;72320;50.082;20.000;2023-11-21T13:17:36;21.10;51.00
21085;DHT22;72320;50.082;20.000;2023-11-21T13:19:10;21.00;51.00
21085;DHT22;72320;50.082;20.000;2023-11-21T13:20:43;21.00;51.00
21085;DHT22;72320;50.082;20.000;2023-11-21T13:22:16;21.00;51.10
21085;DHT22;72320;50.082;20.000;2023-11-21T13:23:49;21.00;51.30
21085;DHT22;72320;50.082;20.000;2023-11-21T13:25:23;21.10;51.20
21085;DHT22;72320;50.082;20.000;2023-11-21T13:26:57;21.10;51.30
21085;DHT22;72320;50.082;20.000;2023-11-21T13:28:31;21.10;51.10
21085;DHT22;72320;50.082;20.000;2023-11-21T13:30:06;21.10;50.80
21085;DHT22;72320;50.082;20.000;2023-11-21T13:31:39;21.10;51.00
21085;DHT22;72320;50.082;20.000;2023-11-21T13:33:12;21.20;50.80
21085;DHT22;72320;50.082;20.000;2023-11-21T13:34:45;21.20;50.40
21085;DHT22;72320;50.082;20.000;2023-11-21T13:36:19;21.30;50.50
21085;DHT22;72320;50.082;20.000;2023-11-21T13:37:52;21.30;51.30
21085;DHT22;72320;50.082;20.000;2023-11-21T13:39:26;21.30;51.40
21085;DHT22;72320;50.082;20.000;2023-11-21T13:40:59;21.20;51.50
21085;DHT22;72320;50.082;20.000;2023-11-21T13:42:32;21.10;51.80
21085;DHT22;72320;50.082;20.000;2023-11-21T13:44:05;20.90;52.00
21085;DHT22;72320;50.082;20.000;2023-11-21T13:45:40;20.70;52.20
21085;DHT22;72320;50.082;20.000;2023-11-21T13:47:16;20.70;52.50
21085;DHT22;72320;50.082;20.000;2023-11-21T13:48:50;20.80;52.60
21085;DHT22;72320;50.082;20.000;2023-11-21T13:50:26;20.80;52.30
21085;DHT22;72320;50.082;20.000;2023-11-21T13:52:00;20.80;52.30
21085;DHT22;72320;50.082;20.000;2023-11-21T13:53:33;20.90;52.50
21085;DHT22;72320;50.082;20.000;2023-11-21T13:55:06;21.00;51.90
21085;DHT22;72320;50.082;20.000;2023-11-21T13:56:41;21.00;52.10
21085;DHT22;72320;50.082;20.000;2023-11-21T13:58:15;21.00;51.90
21085;DHT22;72320;50.082;20.000;2023-11-21T13:59:49;21.10;51.30
21085;DHT22;72320;50.082;20.000;2023-11-21T14:01:24;21.10;51.50
21085;DHT22;72320;50.082;20.000;2023-11-21T14:02:58;21.10;51.50
21085;DHT22;72320;50.082;20.000;2023-11-21T14:04:32;21.00;51.50
21085;DHT22;72320;50.082;20.000;2023-11-21T14:06:06;21.10;51.40
21085;DHT22;72320;50.082;20.000;2023-11-21T14:07:39;21.10;51.20
21085;DHT22;72320;50.082;20.000;2023-11-21T14:09:12;21.10;50.90
21085;DHT22;72320;50.082;20.000;2023-11-21T14:10:45;21.20;50.50
21085;DHT22;72320;50.082;20.000;2023-11-21T14:12:18;21.10;50.40
21085;DHT22;72320;50.082;20.000;2023-11-21T14:13:51;21.10;50.70
21085;DHT22;72320;50.082;20.000;2023-11-21T14:15:24;21.10;50.30
21085;DHT22;72320;50.082;20.000;2023-11-21T14:16:58;21.10;50.00
21085;DHT22;72320;50.082;20.000;2023-11-21T14:18:32;21.20;49.20
21085;DHT22;72320;50.082;20.000;2023-11-21T14:20:05;21.20;49.80
21085;DHT22;72320;50.082;20.000;2023-11-21T14:21:39;21.10;49.20
21085;DHT22;72320;50.082;20.000;2023-11-21T14:23:12;21.20;49.20
21085;DHT22;72320;50.082;20.000;2023-11-21T14:24:46;21.20;48.20
21085;DHT22;72320;50.082;20.000;2023-11-21T14:26:20;21.20;48.80
21085;DHT22;72320;50.082;20.000;2023-11-21T14:27:53;21.20;48.80
21085;DHT22;72320;50.082;20.000;2023-11-21T14:29:26;21.20;48.80
21085;DHT22;72320;50.082;20.000;2023-11-21T14:30:59;21.10;48.80
21085;DHT22;72320;50.082;20.000;2023-11-21T14:32:33;21.20;48.00
21085;DHT22;72320;50.082;20.000;2023-11-21T14:34:06;21.10;47.90
21085;DHT22;72320;50.082;20.000;2023-11-21T14:35:40;21.10;48.20
21085;DHT22;72320;50.082;20.000;2023-11-21T14:37:13;21.10;47.80
21085;DHT22;72320;50.082;20.000;2023-11-21T14:38:46;21.00;48.40
21085;DHT22;72320;50.082;20.000;2023-11-21T14:40:20;20.80;49.00
21085;DHT22;72320;50.082;20.000;2023-11-21T14:41:54;20.60;49.00
21085;DHT22;72320;50.082;20.000;2023-11-21T14:43:28;20.60;49.20
21085;DHT22;72320;50.082;20.000;2023-11-21T14:45:01;20.60;49.20